Milos — A8TH8 — position and weather

sailwx.info

Track history (hours):
 
Tides and Currents Weather Stations Pressure Air Temp Water Temp Dewpoint Dewpoint Depression Visibility Wind Speed Wind Dir Waves Ship Positions

Milos

Last reported at 2014-Apr-29 18:30 UTC. Time now 2014-Jul-29 16:52 UTC.
Position S 31°08' E 034°46'.
Warning: this ship's position is months out of date.

Length 190 m; draft 11.4 m.

Type: Ship (hazmat cat C). MMSI: 636014358.

Date/timePositionNaut miles runAvg speedWind from/ knotsBaromVisibWave heightAir tempDewpointWater temp
2014-Apr-29 18:30S 31°08' E 034°46'3311.3
2014-Apr-29 15:33S 31°22' E 034°10'1111.4
2014-Apr-29 14:33S 31°27' E 033°59'1111.3
2014-Apr-29 13:33S 31°32' E 033°47'1211.6
2014-Apr-29 12:30S 31°38' E 033°34'1111.7
2014-Apr-29 11:33S 31°43' E 033°22'  
2014-Apr-26 13:16S 35°09' E 020°15'3011.0
2014-Apr-26 10:32S 35°08' E 019°39'4610.7
2014-Apr-26 06:18S 34°53' E 018°46'810.7
2014-Apr-26 05:31S 34°50' E 018°37'1010.7
2014-Apr-26 04:33S 34°46' E 018°25'1110.2
2014-Apr-26 03:31S 34°36' E 018°20'2010.0
2014-Apr-26 01:32S 34°18' E 018°10'10 9.7
2014-Apr-26 00:28S 34°08' E 018°05'1010.7
2014-Apr-25 23:32S 33°59' E 018°01'1411.1
2014-Apr-25 22:14S 33°45' E 017°57'1311.2
2014-Apr-25 21:05S 33°32' E 017°54'611.2
2014-Apr-25 20:33S 33°27' E 017°53'22 9.5
2014-Apr-25 18:12S 33°04' E 017°55'5 5.6
2014-Apr-25 17:17S 33°01' E 017°59'  
2014-Apr-21 03:26S 33°11' E 017°43'10 5.2
2014-Apr-21 01:33S 33°20' E 017°48'5 5.4
2014-Apr-21 00:33S 33°23' E 017°53'1311.2
2014-Apr-20 23:25S 33°35' E 017°56'2912.5
2014-Apr-20 21:08S 34°03' E 018°03'812.5
2014-Apr-20 20:32S 34°10' E 018°06'1613.0
2014-Apr-20 19:19S 34°24' E 018°14'1013.3
2014-Apr-20 18:32S 34°31' E 018°24'1313.1
2014-Apr-20 17:32S 34°39' E 018°36'1313.1
2014-Apr-20 16:32S 34°48' E 018°49'14511.8
2014-Apr-20 04:19S 35°18' E 021°42'  
Track history (hours):
 
Tides and Currents Weather Stations Pressure Air Temp Water Temp Dewpoint Dewpoint Depression Visibility Wind Speed Wind Dir Waves Ship Positions

Milos

Last reported at 2014-Apr-29 18:30 UTC. Time now 2014-Jul-29 16:52 UTC.
Position S 31°08' E 034°46'.
Warning: this ship's position is months out of date.

Length 190 m; draft 11.4 m.

Type: Ship (hazmat cat C). MMSI: 636014358.

Date/timePositionNaut miles runAvg speedWind from/ knotsBaromVisibWave heightAir tempDewpointWater temp
2014-Apr-29 18:30S 31°08' E 034°46'3311.3
2014-Apr-29 15:33S 31°22' E 034°10'1111.4
2014-Apr-29 14:33S 31°27' E 033°59'1111.3
2014-Apr-29 13:33S 31°32' E 033°47'1211.6
2014-Apr-29 12:30S 31°38' E 033°34'1111.7
2014-Apr-29 11:33S 31°43' E 033°22'  
2014-Apr-26 13:16S 35°09' E 020°15'3011.0
2014-Apr-26 10:32S 35°08' E 019°39'4610.7
2014-Apr-26 06:18S 34°53' E 018°46'810.7
2014-Apr-26 05:31S 34°50' E 018°37'1010.7
2014-Apr-26 04:33S 34°46' E 018°25'1110.2
2014-Apr-26 03:31S 34°36' E 018°20'2010.0
2014-Apr-26 01:32S 34°18' E 018°10'10 9.7
2014-Apr-26 00:28S 34°08' E 018°05'1010.7
2014-Apr-25 23:32S 33°59' E 018°01'1411.1
2014-Apr-25 22:14S 33°45' E 017°57'1311.2
2014-Apr-25 21:05S 33°32' E 017°54'611.2
2014-Apr-25 20:33S 33°27' E 017°53'22 9.5
2014-Apr-25 18:12S 33°04' E 017°55'5 5.6
2014-Apr-25 17:17S 33°01' E 017°59'  
2014-Apr-21 03:26S 33°11' E 017°43'10 5.2
2014-Apr-21 01:33S 33°20' E 017°48'5 5.4
2014-Apr-21 00:33S 33°23' E 017°53'1311.2
2014-Apr-20 23:25S 33°35' E 017°56'2912.5
2014-Apr-20 21:08S 34°03' E 018°03'812.5
2014-Apr-20 20:32S 34°10' E 018°06'1613.0
2014-Apr-20 19:19S 34°24' E 018°14'1013.3
2014-Apr-20 18:32S 34°31' E 018°24'1313.1
2014-Apr-20 17:32S 34°39' E 018°36'1313.1
2014-Apr-20 16:32S 34°48' E 018°49'14511.8
2014-Apr-20 04:19S 35°18' E 021°42'  

Dump ship's entire track history